createdAt,value
2023-08-11T00:00:10.369Z,3.50
2023-08-11T00:02:39.276Z,3.60
2023-08-11T00:05:10.939Z,3.70
2023-08-11T00:07:38.325Z,3.70
2023-08-11T00:10:07.056Z,3.60
2023-08-11T00:12:34.461Z,4.10
2023-08-11T00:15:02.341Z,5.20
2023-08-11T00:17:29.773Z,6.20
2023-08-11T00:19:57.164Z,5.60
2023-08-11T00:22:24.834Z,4.80
2023-08-11T00:24:52.355Z,4.40
2023-08-11T00:27:21.093Z,4.20
2023-08-11T00:29:48.550Z,4.70
2023-08-11T00:32:15.977Z,4.50
2023-08-11T00:34:43.671Z,3.90
2023-08-11T00:37:11.363Z,3.70
2023-08-11T00:39:39.005Z,4.40
2023-08-11T00:42:06.888Z,4.40
2023-08-11T00:44:34.233Z,4.20
2023-08-11T00:47:01.919Z,4.10
2023-08-11T00:49:29.527Z,4.40
2023-08-11T00:51:57.024Z,4.80
2023-08-11T00:54:25.604Z,4.60
2023-08-11T00:56:53.199Z,4.60
2023-08-11T00:59:20.962Z,3.90
2023-08-11T01:01:48.672Z,5.00
2023-08-11T01:04:16.415Z,4.20
2023-08-11T01:06:49.072Z,4.20
2023-08-11T01:09:32.670Z,4.90
2023-08-11T01:12:27.599Z,3.80
2023-08-11T01:15:09.464Z,4.50
2023-08-11T01:17:40.700Z,6.20
2023-08-11T01:20:17.081Z,4.80
2023-08-11T01:22:48.157Z,4.10
2023-08-11T01:25:16.567Z,3.90
2023-08-11T01:27:48.358Z,4.20
2023-08-11T01:30:16.108Z,4.70
2023-08-11T01:32:43.512Z,4.10
2023-08-11T01:35:11.395Z,4.00
2023-08-11T01:37:39.497Z,4.10
2023-08-11T01:40:11.788Z,4.40
2023-08-11T01:42:46.695Z,4.20
2023-08-11T01:45:18.818Z,3.90
2023-08-11T01:47:48.222Z,3.80
2023-08-11T01:50:18.685Z,3.70
2023-08-11T01:52:48.733Z,3.60
2023-08-11T01:55:18.105Z,3.90
2023-08-11T01:57:57.487Z,3.60
2023-08-11T02:00:27.073Z,3.80
2023-08-11T02:02:54.652Z,4.20
2023-08-11T02:05:25.902Z,3.90
2023-08-11T02:07:56.661Z,4.30
2023-08-11T02:10:24.566Z,4.70
2023-08-11T02:12:52.344Z,4.00
2023-08-11T02:15:20.203Z,3.70
2023-08-11T02:17:47.777Z,4.00
2023-08-11T02:20:25.313Z,4.30
2023-08-11T02:22:55.149Z,4.00
2023-08-11T02:25:29.010Z,4.20
2023-08-11T02:27:56.386Z,4.10
2023-08-11T02:30:23.926Z,4.00
2023-08-11T02:32:51.829Z,3.70
2023-08-11T02:35:19.409Z,3.90
2023-08-11T02:37:46.896Z,4.20
2023-08-11T02:40:16.014Z,4.40
2023-08-11T02:42:54.946Z,4.20
2023-08-11T02:45:22.438Z,3.40
2023-08-11T02:47:52.213Z,3.90
2023-08-11T02:50:19.757Z,3.80
2023-08-11T02:52:47.275Z,4.40
2023-08-11T02:55:15.142Z,5.10
2023-08-11T02:57:42.611Z,4.40
2023-08-11T03:00:14.774Z,4.50
2023-08-11T03:02:43.778Z,4.10
2023-08-11T03:05:11.417Z,5.20
2023-08-11T03:07:39.649Z,4.80
2023-08-11T03:10:08.925Z,4.50
2023-08-11T03:12:37.277Z,4.50
2023-08-11T03:15:06.738Z,4.00
2023-08-11T03:17:36.988Z,4.10
2023-08-11T03:20:12.035Z,4.30
2023-08-11T03:22:42.064Z,4.40
2023-08-11T03:25:10.698Z,4.00
2023-08-11T03:27:41.015Z,4.10
2023-08-11T03:30:13.232Z,3.80
2023-08-11T03:32:41.458Z,3.90
2023-08-11T03:35:09.921Z,4.10
2023-08-11T03:37:37.653Z,3.90
2023-08-11T03:40:13.896Z,4.10
2023-08-11T03:42:43.478Z,4.30
2023-08-11T03:45:13.856Z,4.20
2023-08-11T03:47:43.108Z,4.50
2023-08-11T03:50:11.822Z,4.30
2023-08-11T03:52:39.324Z,4.50
2023-08-11T03:55:10.767Z,4.20
2023-08-11T03:57:39.279Z,4.00
2023-08-11T04:00:15.598Z,4.80
2023-08-11T04:02:47.309Z,5.10
2023-08-11T04:05:14.945Z,4.50
2023-08-11T04:07:42.411Z,4.00
2023-08-11T04:10:13.592Z,4.40
2023-08-11T04:12:40.995Z,4.40
2023-08-11T04:15:08.961Z,3.90
2023-08-11T04:17:38.240Z,5.40
2023-08-11T04:20:15.026Z,4.10
2023-08-11T04:22:43.386Z,4.90
2023-08-11T04:25:13.154Z,4.40
2023-08-11T04:27:41.144Z,4.30
2023-08-11T04:30:11.684Z,4.20
2023-08-11T04:32:39.259Z,4.20
2023-08-11T04:35:08.817Z,4.50
2023-08-11T04:37:36.534Z,4.40
2023-08-11T04:40:10.807Z,4.80
2023-08-11T04:42:39.150Z,4.00
2023-08-11T04:45:08.272Z,4.80
2023-08-11T04:47:36.328Z,4.10
2023-08-11T04:50:05.042Z,4.60
2023-08-11T04:52:32.448Z,5.00
2023-08-11T04:54:59.862Z,5.20
2023-08-11T04:57:27.311Z,4.70
2023-08-11T04:59:54.849Z,4.80
2023-08-11T05:02:22.278Z,4.40
2023-08-11T05:04:49.844Z,5.20
2023-08-11T05:07:17.382Z,4.70
2023-08-11T05:09:45.383Z,4.50
2023-08-11T05:12:13.714Z,4.70
2023-08-11T05:14:41.119Z,4.80
2023-08-11T05:17:08.746Z,4.70
2023-08-11T05:19:37.980Z,5.30
2023-08-11T05:22:05.466Z,4.50
2023-08-11T05:24:32.860Z,4.50
2023-08-11T05:27:00.254Z,4.50
2023-08-11T05:29:27.728Z,4.80
2023-08-11T05:31:55.116Z,4.80
2023-08-11T05:34:23.835Z,5.10
2023-08-11T05:36:51.241Z,4.90
2023-08-11T05:39:18.616Z,4.40
2023-08-11T05:41:46.127Z,5.10
2023-08-11T05:44:13.578Z,4.90
2023-08-11T05:46:41.011Z,4.50
2023-08-11T05:49:08.450Z,5.30
2023-08-11T05:51:35.902Z,4.70
2023-08-11T05:54:03.666Z,5.10
2023-08-11T05:56:31.432Z,4.60
2023-08-11T05:58:58.975Z,4.50
2023-08-11T06:01:26.487Z,4.70
2023-08-11T06:03:54.043Z,4.50
2023-08-11T06:06:21.497Z,4.80
2023-08-11T06:08:49.288Z,5.20
2023-08-11T06:11:16.750Z,4.70
2023-08-11T06:13:44.215Z,4.40
2023-08-11T06:16:11.660Z,4.50
2023-08-11T06:18:39.435Z,4.70
2023-08-11T06:21:07.734Z,4.60
2023-08-11T06:23:35.142Z,4.40
2023-08-11T06:26:03.096Z,4.40
2023-08-11T06:28:30.524Z,4.50
2023-08-11T06:30:59.604Z,4.30
2023-08-11T06:33:27.401Z,4.70
2023-08-11T06:35:55.124Z,4.50
2023-08-11T06:38:22.512Z,4.80
2023-08-11T06:40:51.725Z,4.80
2023-08-11T06:43:19.131Z,5.10
2023-08-11T06:45:46.984Z,4.40
2023-08-11T06:48:14.415Z,4.50
2023-08-11T06:50:41.929Z,4.90
2023-08-11T06:53:10.152Z,4.70
2023-08-11T06:55:37.630Z,4.80
2023-08-11T06:58:05.634Z,4.70
2023-08-11T07:00:33.094Z,4.60
2023-08-11T07:03:01.405Z,4.30
2023-08-11T07:05:29.061Z,4.70
2023-08-11T07:07:56.805Z,4.30
2023-08-11T07:10:24.492Z,5.20
2023-08-11T07:12:52.258Z,4.70
2023-08-11T07:15:19.834Z,4.80
2023-08-11T07:17:48.094Z,4.40
2023-08-11T07:20:15.728Z,4.50
2023-08-11T07:22:43.228Z,4.60
2023-08-11T07:25:10.678Z,4.50
2023-08-11T07:27:38.137Z,4.20
2023-08-11T07:30:06.933Z,4.10
2023-08-11T07:32:34.349Z,3.80
2023-08-11T07:35:02.120Z,3.50
2023-08-11T07:37:29.510Z,3.60
2023-08-11T07:39:57.861Z,3.30
2023-08-11T07:42:25.611Z,3.30
2023-08-11T07:44:53.030Z,3.50
2023-08-11T07:47:20.724Z,3.50
2023-08-11T07:49:48.173Z,3.40
2023-08-11T07:52:15.597Z,3.30
2023-08-11T07:54:43.110Z,4.10
2023-08-11T07:57:11.889Z,4.30
2023-08-11T07:59:39.557Z,4.20
2023-08-11T08:02:08.767Z,4.20
2023-08-11T08:04:36.304Z,3.90
2023-08-11T08:07:03.761Z,3.60
2023-08-11T08:09:35.106Z,4.00
2023-08-11T08:12:03.345Z,4.40
2023-08-11T08:14:30.786Z,3.90
2023-08-11T08:17:02.299Z,3.50
2023-08-11T08:19:29.894Z,4.20
2023-08-11T08:21:57.376Z,3.90
2023-08-11T08:24:24.819Z,3.70
2023-08-11T08:26:52.668Z,4.10
2023-08-11T08:29:20.235Z,4.60
2023-08-11T08:31:47.698Z,4.00
2023-08-11T08:34:15.133Z,4.20
2023-08-11T08:36:42.631Z,4.30
2023-08-11T08:39:10.060Z,4.20
2023-08-11T08:41:40.006Z,4.30
2023-08-11T08:44:07.428Z,4.60
2023-08-11T08:46:35.370Z,4.10
2023-08-11T08:49:22.980Z,4.20
2023-08-11T08:51:50.972Z,4.00
2023-08-11T08:54:18.654Z,3.80
2023-08-11T08:56:46.830Z,4.00
2023-08-11T08:59:14.335Z,4.10
2023-08-11T09:01:42.239Z,4.20
2023-08-11T09:04:10.667Z,4.40
2023-08-11T09:06:39.937Z,4.00
2023-08-11T09:09:09.881Z,3.40
2023-08-11T09:14:09.536Z,3.60
2023-08-11T09:16:41.572Z,4.10
2023-08-11T09:19:14.150Z,3.70
2023-08-11T09:21:44.728Z,3.70
2023-08-11T09:24:14.093Z,3.70
2023-08-11T09:26:46.448Z,3.50
2023-08-11T09:29:16.027Z,3.70
2023-08-11T09:31:43.615Z,3.40
2023-08-11T09:34:17.410Z,3.40
2023-08-11T09:36:47.759Z,3.40
2023-08-11T09:39:17.056Z,3.50
2023-08-11T09:41:49.460Z,3.50
2023-08-11T09:44:19.490Z,3.60
2023-08-11T09:46:50.606Z,3.50
2023-08-11T09:49:18.981Z,3.60
2023-08-11T09:51:47.067Z,3.40
2023-08-11T09:54:16.319Z,3.70
2023-08-11T09:56:45.103Z,3.40
2023-08-11T09:59:17.917Z,2.80
2023-08-11T10:01:47.313Z,3.10
2023-08-11T10:04:44.697Z,3.00
2023-08-11T10:07:15.956Z,3.20
2023-08-11T10:09:47.113Z,3.30
2023-08-11T10:12:15.059Z,3.00
2023-08-11T10:14:44.093Z,3.00
2023-08-11T10:17:13.280Z,3.20
2023-08-11T10:19:41.230Z,2.80
2023-08-11T10:22:09.620Z,3.40
2023-08-11T10:24:38.956Z,3.10
2023-08-11T10:27:09.081Z,3.20
2023-08-11T10:29:39.715Z,3.00
2023-08-11T10:32:07.544Z,3.30
2023-08-11T10:34:35.538Z,3.00
2023-08-11T10:37:03.086Z,3.00
2023-08-11T10:39:30.479Z,3.40
2023-08-11T10:41:58.677Z,2.70
2023-08-11T10:44:30.673Z,2.90
2023-08-11T10:47:04.677Z,3.10
2023-08-11T10:49:35.347Z,3.00
2023-08-11T10:52:05.070Z,3.00
2023-08-11T10:54:34.424Z,2.90
2023-08-11T10:57:02.800Z,3.90
2023-08-11T10:59:32.213Z,3.30
2023-08-11T11:02:02.855Z,3.10
2023-08-11T11:04:33.112Z,2.80
2023-08-11T11:07:02.433Z,2.80
2023-08-11T11:09:30.771Z,3.20
2023-08-11T11:11:58.587Z,3.00
2023-08-11T11:14:30.005Z,3.10
2023-08-11T11:17:01.870Z,3.30
2023-08-11T11:19:29.909Z,2.70
2023-08-11T11:21:57.698Z,3.00
2023-08-11T11:24:25.190Z,3.20
2023-08-11T11:26:53.162Z,2.50
2023-08-11T11:29:25.476Z,3.00
2023-08-11T11:31:53.690Z,2.80
2023-08-11T11:34:22.581Z,3.10
2023-08-11T11:36:50.636Z,2.80
2023-08-11T11:39:19.379Z,2.80
2023-08-11T11:41:46.871Z,2.90
2023-08-11T11:44:14.565Z,2.40
2023-08-11T11:46:43.390Z,3.00
2023-08-11T11:49:28.055Z,2.70
2023-08-11T11:52:01.635Z,2.60
2023-08-11T11:54:31.152Z,3.00
2023-08-11T11:57:04.684Z,2.90
2023-08-11T11:59:34.691Z,2.40
2023-08-11T12:02:02.592Z,2.50
2023-08-11T12:04:30.999Z,2.60
2023-08-11T12:06:58.628Z,2.80
2023-08-11T12:09:26.235Z,2.70
2023-08-11T12:11:56.917Z,2.50
2023-08-11T12:14:28.257Z,2.60
2023-08-11T12:16:57.411Z,2.70
2023-08-11T12:19:24.951Z,2.90
2023-08-11T12:21:52.656Z,2.40
2023-08-11T12:24:20.492Z,2.50
2023-08-11T12:26:49.505Z,2.60
2023-08-11T12:29:17.050Z,2.70
2023-08-11T12:31:47.188Z,2.50
2023-08-11T12:34:14.655Z,2.30
2023-08-11T12:36:42.178Z,2.20
2023-08-11T12:39:09.725Z,2.90
2023-08-11T12:41:37.358Z,2.30
2023-08-11T12:44:05.870Z,2.50
2023-08-11T12:46:33.332Z,2.60
2023-08-11T12:49:00.859Z,2.20
2023-08-11T12:51:28.319Z,2.50
2023-08-11T12:53:55.738Z,2.60
2023-08-11T12:56:23.167Z,2.60
2023-08-11T12:58:50.575Z,2.40
2023-08-11T13:01:18.524Z,2.70
2023-08-11T13:03:47.192Z,2.50
2023-08-11T13:06:14.680Z,2.30
2023-08-11T13:08:42.051Z,3.10
2023-08-11T13:11:09.592Z,2.70
2023-08-11T13:13:37.041Z,2.50
2023-08-11T13:16:05.307Z,2.70
2023-08-11T13:18:32.762Z,2.80
2023-08-11T13:21:00.173Z,2.60
2023-08-11T13:23:30.408Z,2.80
2023-08-11T13:25:59.217Z,2.70
2023-08-11T13:28:26.800Z,2.70
2023-08-11T13:30:54.297Z,2.40
2023-08-11T13:33:21.991Z,2.70
2023-08-11T13:35:49.666Z,2.70
2023-08-11T13:38:17.096Z,3.00
2023-08-11T13:40:45.386Z,2.90
2023-08-11T13:43:12.805Z,2.70
2023-08-11T13:45:40.200Z,2.60
2023-08-11T13:48:07.659Z,3.00
2023-08-11T13:50:35.230Z,2.40
2023-08-11T13:53:02.699Z,3.10
2023-08-11T13:55:30.193Z,3.50
2023-08-11T13:57:58.201Z,3.10
2023-08-11T14:00:25.933Z,2.90
2023-08-11T14:02:53.371Z,3.00
2023-08-11T14:05:20.912Z,2.70
2023-08-11T14:07:51.767Z,2.80
2023-08-11T14:10:19.234Z,2.80
2023-08-11T14:12:46.665Z,3.10
2023-08-11T14:15:14.380Z,2.70
2023-08-11T14:17:42.172Z,3.00
2023-08-11T14:20:11.082Z,3.00
2023-08-11T14:22:38.531Z,2.80
2023-08-11T14:25:07.049Z,3.20
2023-08-11T14:27:34.477Z,2.80
2023-08-11T14:30:02.201Z,2.70
2023-08-11T14:32:30.119Z,3.30
2023-08-11T14:34:57.822Z,3.30
2023-08-11T14:37:25.243Z,3.30
2023-08-11T14:39:52.696Z,3.30
2023-08-11T14:42:20.170Z,3.50
2023-08-11T14:44:47.714Z,3.80
2023-08-11T14:47:15.753Z,3.90
2023-08-11T14:49:44.881Z,3.80
2023-08-11T14:52:13.779Z,3.60
2023-08-11T14:54:41.759Z,3.50
2023-08-11T14:57:11.267Z,3.70
2023-08-11T14:59:39.709Z,3.70
2023-08-11T15:02:07.502Z,3.60
2023-08-11T15:04:35.369Z,3.60
2023-08-11T15:07:02.997Z,2.80
2023-08-11T15:09:30.438Z,3.30
2023-08-11T15:11:58.512Z,2.90
2023-08-11T15:14:25.997Z,2.90
2023-08-11T15:16:53.652Z,2.80
2023-08-11T15:19:21.890Z,3.10
2023-08-11T15:21:49.292Z,2.50
2023-08-11T15:24:16.717Z,2.40
2023-08-11T15:26:44.161Z,2.40
2023-08-11T15:29:11.572Z,2.40
2023-08-11T15:31:39.037Z,2.30
2023-08-11T15:34:07.322Z,2.30
2023-08-11T15:36:34.728Z,2.10
2023-08-11T15:39:02.135Z,2.20
2023-08-11T15:41:29.604Z,2.10
2023-08-11T15:43:57.048Z,2.10
2023-08-11T15:46:24.792Z,2.30
2023-08-11T15:48:53.693Z,2.60
2023-08-11T15:51:21.283Z,2.50
2023-08-11T15:53:48.858Z,2.20
2023-08-11T15:56:16.248Z,2.30
2023-08-11T15:58:43.662Z,2.50
2023-08-11T16:01:11.102Z,2.90
2023-08-11T16:03:38.724Z,2.70
2023-08-11T16:06:06.898Z,2.50
2023-08-11T16:08:34.509Z,2.60
2023-08-11T16:11:01.965Z,3.20
2023-08-11T16:13:29.377Z,3.00
2023-08-11T16:15:56.829Z,2.70
2023-08-11T16:18:24.305Z,2.50
2023-08-11T16:20:51.995Z,2.40
2023-08-11T16:23:19.493Z,2.60
2023-08-11T16:25:47.074Z,2.30
2023-08-11T16:28:16.397Z,2.70
2023-08-11T16:30:43.843Z,2.30
2023-08-11T16:33:11.673Z,3.30
2023-08-11T16:35:39.340Z,3.00
2023-08-11T16:38:06.928Z,2.30
2023-08-11T16:40:34.477Z,2.10
2023-08-11T16:43:02.375Z,2.40
2023-08-11T16:45:31.320Z,2.10
2023-08-11T16:48:01.081Z,2.40
2023-08-11T16:50:28.676Z,3.00
2023-08-11T16:52:57.486Z,2.40
2023-08-11T16:55:24.974Z,2.60
2023-08-11T16:57:52.466Z,2.30
2023-08-11T17:00:20.124Z,2.80
2023-08-11T17:02:49.340Z,2.70
2023-08-11T17:05:16.907Z,4.10
2023-08-11T17:07:44.410Z,2.80
2023-08-11T17:10:11.944Z,3.00
2023-08-11T17:12:39.408Z,3.00
2023-08-11T17:15:08.448Z,3.00
2023-08-11T17:17:35.983Z,2.70
2023-08-11T17:20:05.472Z,3.00
2023-08-11T17:22:32.874Z,3.00
2023-08-11T17:25:00.610Z,3.00
2023-08-11T17:27:28.077Z,3.10
2023-08-11T17:29:55.464Z,2.80
2023-08-11T17:32:23.777Z,2.70
2023-08-11T17:34:57.750Z,2.90
2023-08-11T17:37:26.142Z,3.00
2023-08-11T17:39:54.339Z,2.70
2023-08-11T17:42:21.823Z,2.90
2023-08-11T17:44:49.324Z,3.00
2023-08-11T17:47:16.985Z,3.10
2023-08-11T17:49:44.446Z,2.90
2023-08-11T17:52:12.145Z,3.30
2023-08-11T17:54:40.034Z,4.20
2023-08-11T17:57:07.416Z,3.20
2023-08-11T17:59:35.767Z,3.30
2023-08-11T18:02:03.609Z,3.70
2023-08-11T18:04:31.123Z,3.10
2023-08-11T18:06:58.609Z,3.20
2023-08-11T18:09:26.109Z,3.20
2023-08-11T18:11:53.679Z,3.00
2023-08-11T18:14:21.063Z,4.00
2023-08-11T18:16:48.466Z,4.70
2023-08-11T18:19:15.920Z,4.00
2023-08-11T18:21:43.291Z,4.90
2023-08-11T18:24:10.972Z,4.50
2023-08-11T18:26:38.453Z,4.10
2023-08-11T18:29:05.903Z,4.00
2023-08-11T18:31:33.354Z,3.60
2023-08-11T18:34:01.605Z,3.40
2023-08-11T18:36:29.698Z,3.30
2023-08-11T18:38:57.212Z,3.60
2023-08-11T18:41:24.899Z,3.60
2023-08-11T18:43:52.453Z,4.00
2023-08-11T18:46:19.938Z,5.40
2023-08-11T18:48:49.700Z,4.30
2023-08-11T18:51:17.647Z,4.80
2023-08-11T18:53:45.116Z,5.10
2023-08-11T18:56:12.664Z,4.80
2023-08-11T18:58:40.050Z,4.30
2023-08-11T19:01:07.748Z,4.50
2023-08-11T19:03:35.301Z,4.20
2023-08-11T19:06:03.057Z,4.70
2023-08-11T19:08:30.502Z,4.50
2023-08-11T19:10:58.015Z,4.50
2023-08-11T19:13:25.536Z,3.70
2023-08-11T19:15:53.091Z,4.30
2023-08-11T19:18:20.554Z,4.10
2023-08-11T19:20:48.435Z,4.50
2023-08-11T19:23:17.034Z,4.40
2023-08-11T19:25:44.455Z,4.10
2023-08-11T19:28:13.222Z,4.00
2023-08-11T19:30:40.836Z,4.00
2023-08-11T19:33:08.448Z,4.10
2023-08-11T19:35:36.039Z,3.50
2023-08-11T19:38:03.812Z,3.90
2023-08-11T19:40:31.225Z,4.40
2023-08-11T19:42:58.670Z,4.40
2023-08-11T19:45:26.029Z,4.50
2023-08-11T19:47:53.484Z,4.20
2023-08-11T19:50:23.331Z,4.30
2023-08-11T19:52:50.916Z,4.30
2023-08-11T19:55:18.360Z,4.50
2023-08-11T19:57:45.840Z,4.60
2023-08-11T20:00:14.303Z,5.10
2023-08-11T20:02:41.761Z,4.50
2023-08-11T20:05:09.483Z,4.80
2023-08-11T20:07:38.294Z,5.00
2023-08-11T20:10:06.973Z,5.30
2023-08-11T20:12:34.498Z,4.60
2023-08-11T20:15:02.082Z,4.90
2023-08-11T20:17:29.490Z,5.10
2023-08-11T20:19:57.025Z,4.80
2023-08-11T20:22:24.460Z,4.70
2023-08-11T20:24:51.854Z,5.00
2023-08-11T20:27:21.996Z,4.40
2023-08-11T20:29:50.517Z,4.30
2023-08-11T20:32:17.888Z,4.10
2023-08-11T20:34:45.432Z,3.80
2023-08-11T20:37:13.229Z,4.10
2023-08-11T20:39:40.927Z,4.40
2023-08-11T20:42:08.460Z,4.00
2023-08-11T20:44:36.134Z,3.80
2023-08-11T20:47:03.538Z,3.90
2023-08-11T20:49:31.134Z,4.20
2023-08-11T20:51:58.704Z,3.50
2023-08-11T20:54:26.094Z,3.60
2023-08-11T20:56:55.413Z,3.70
2023-08-11T20:59:23.747Z,4.20
2023-08-11T21:01:51.216Z,4.00
2023-08-11T21:04:18.752Z,3.80
2023-08-11T21:06:46.281Z,3.80
2023-08-11T21:09:13.716Z,4.20
2023-08-11T21:11:41.136Z,4.30
2023-08-11T21:14:10.058Z,4.50
2023-08-11T21:16:40.310Z,4.20
2023-08-11T21:19:08.769Z,4.30
2023-08-11T21:21:36.687Z,4.20
2023-08-11T21:24:04.763Z,3.90
2023-08-11T21:26:32.193Z,4.30
2023-08-11T21:28:59.875Z,4.70
2023-08-11T21:31:27.333Z,4.30
2023-08-11T21:34:13.000Z,4.10
2023-08-11T21:36:40.593Z,4.10
2023-08-11T21:39:08.040Z,5.10
2023-08-11T21:41:36.205Z,4.10
2023-08-11T21:44:04.262Z,3.90
2023-08-11T21:46:32.126Z,3.60
2023-08-11T21:48:59.960Z,3.30
2023-08-11T21:51:27.444Z,3.40
2023-08-11T21:53:55.070Z,3.60
2023-08-11T21:56:22.525Z,3.10
2023-08-11T21:58:49.934Z,3.70
2023-08-11T22:01:17.428Z,3.50
2023-08-11T22:03:45.039Z,3.10
2023-08-11T22:06:14.510Z,3.50
2023-08-11T22:08:42.767Z,3.60
2023-08-11T22:11:22.218Z,3.10
2023-08-11T22:13:57.933Z,3.60
2023-08-11T22:16:25.404Z,3.50
2023-08-11T22:18:53.166Z,3.10
2023-08-11T22:21:20.695Z,2.90
2023-08-11T22:23:48.176Z,3.70
2023-08-11T22:26:15.564Z,3.40
2023-08-11T22:28:43.141Z,3.20
2023-08-11T22:31:10.662Z,2.90
2023-08-11T22:33:38.484Z,3.00
2023-08-11T22:36:06.646Z,2.90
2023-08-11T22:38:34.833Z,2.80
2023-08-11T22:41:02.286Z,2.40
2023-08-11T22:43:29.714Z,2.60
2023-08-11T22:45:57.173Z,2.70
2023-08-11T22:48:24.772Z,2.70
2023-08-11T22:50:52.179Z,2.90
2023-08-11T22:53:20.096Z,2.90
2023-08-11T22:55:47.694Z,2.70
2023-08-11T22:58:15.201Z,3.00
2023-08-11T23:00:43.091Z,2.60
2023-08-11T23:03:10.505Z,3.00
2023-08-11T23:05:38.248Z,3.20
2023-08-11T23:08:06.305Z,3.20
2023-08-11T23:10:34.890Z,3.00
2023-08-11T23:13:02.262Z,3.00
2023-08-11T23:15:29.695Z,2.70
2023-08-11T23:17:57.127Z,2.60
2023-08-11T23:20:24.614Z,3.00
2023-08-11T23:22:52.000Z,2.70
2023-08-11T23:25:19.525Z,2.90
2023-08-11T23:27:46.933Z,3.20
2023-08-11T23:30:15.539Z,3.00
2023-08-11T23:32:42.966Z,3.30
2023-08-11T23:35:10.453Z,2.90
2023-08-11T23:37:37.945Z,3.40
2023-08-11T23:40:06.310Z,3.10
2023-08-11T23:42:33.774Z,2.90
2023-08-11T23:45:06.819Z,3.20
2023-08-11T23:47:37.394Z,3.40
2023-08-11T23:50:05.980Z,3.30
2023-08-11T23:52:35.729Z,3.50
2023-08-11T23:55:06.997Z,3.40
2023-08-11T23:57:37.071Z,3.50
